• Join FlightAware (Why Join?)
  • Login
  • US Flag 
08:18AM EDT


 

Airport Tracker/Info


-or-


 

Live Flight TrackerFlight Track Log ✈ FLG3800 ✈ 19-Jul-2013 ✈ KSBN - KDTW

Flight Track Log - Related Links

Times and Time Zones

All times are in EDT time to prevent confusion due to time zone crossing. See the FLG3800 flight status page for this flight to view local times or setup timezone preferences in your user account.

Time Position Orientation Groundspeed Altitude Reporting Facility
EDT Latitude Longitude Course Direction KTS MPH feet Rate Location/Type
08:07AM 41.7161 -86.3644 73° East 168 193 2,400  Level Chicago Center
08:08AM 41.7606 -86.3525 11° North 262 302 4,400 1,980 Climbing Chicago Center
08:09AM 41.7667 -86.0256 90° East  Level FlightAware Approximate
08:09AM 41.8003 -86.2353 66° East 281 323 6,600  Level Chicago Center
08:10AM 41.7849 -85.9274 71° East  Level FlightAware Approximate
08:10AM 41.8339 -86.1278 67° East 304 350 8,900  Level Chicago Center
08:11AM 41.8091 -85.8304 71° East  Level FlightAware Approximate
08:11AM 41.8539 -86.0081 77° East 326 375 10,800  Level Chicago Center
08:12AM 41.8322 -85.7330 73° East  Level FlightAware Approximate
08:12AM 41.8778 -85.8756 76° East 349 402 11,900  Level Chicago Center
08:13AM 41.9028 -85.7331 77° East 377 434 13,000 480 Climbing Chicago Center
08:14AM 41.9286 -85.5844 77° East 399 459 13,000  Level Chicago Center
08:15AM 41.9544 -85.4378 77° East 400 460 13,000  Level Chicago Center
08:16AM 41.9792 -85.2906 77° East 401 461 13,000  Level Chicago Center
08:17AM 42.0089 -85.1131 77° East 403 464 13,000  Level Chicago Center
08:18AM 42.0328 -84.9653 78° East 403 464 13,000  Level Chicago Center
08:19AM 42.0264 -84.8169 93° East 407 468 13,000  Level Chicago Center
08:20AM 41.9900 -84.6764 109° East 401 461 13,000 -300 Level Chicago Center
08:22AM 41.9250 -84.4208 109° East 393 452 12,300 -420 Descending Cleveland Center
08:23AM 41.8969 -84.3217 111° Southeast 388 447 12,000 -180 Descending Cleveland Center
08:24AM 41.8619 -84.1800 108° East 396 456 12,000  Level Cleveland Center
08:25AM 41.8483 -84.0064 96° East 399 459 12,000  Level Cleveland Center
08:26AM 41.9078 -83.9036 52° Northeast 347 399 12,000  Level Cleveland Center
08:27AM 41.9817 -83.7983 47° Northeast 353 406 12,000 -300 Level Cleveland Center
08:28AM 42.0575 -83.6958 45° Northeast 365 420 11,400 -540 Descending Cleveland Center
08:29AM 42.1200 -83.6122 45° Northeast 351 404 11,000 -240 Descending Cleveland Center
08:30AM 42.1803 -83.5478 38° Northeast 295 339 11,000 -360 Level Cleveland Center
08:31AM 42.2500 -83.5061 24° Northeast 263 303 10,300 -1,380 Descending Cleveland Center
08:32AM 42.3158 -83.4614 27° Northeast 257 296 8,300 -2,100 Descending Cleveland Center
08:33AM 42.3981 -83.4258 18° North 251 289 5,900 -1,800 Descending Cleveland Center
08:34AM 42.4308 -83.3569 57° Northeast 239 275 4,600 -960 Descending Cleveland Center
08:35AM 42.3969 -83.2964 127° Southeast 180 207 4,000 -720 Descending Cleveland Center
08:36AM 42.3450 -83.2858 171° South 185 213 3,200 -780 Descending Cleveland Center
08:37AM 42.3006 -83.3119 203° Southwest 160 184 2,400 -780 Descending Cleveland Center